Aérodrome :
LOGIN :

S'inscrire | Disclaimer

   EN    FR    IT 

 










Légende :    VFR   VFR Marginal   IFR   IFR Intensif   IFR Très Intensif
Visi : 
Plafond : 
>= 8 km
>= 3000ft
5 à 8 km
1000 à 3000 ft
1500m à 5 km
500 à 1000 ft
800 à 1500m
200 à 500 ft
< 800m
< 200 ft
Symboles :   Orages  Brouillard  Fortes neiges  Fortes précipitations  Vent > 20 kt
SIGMETs :   Divers  Orages  Givrage  Turbulence  Onde Orograph.  Cendres Volcan.






- Altitude de l'aérodrome : 433 ft


LFOC - Chateaudun

DERNIER METAR :
  • 041430Z AUTO 11011KT 080V160 CAVOK 17/01 Q1019

METARs EXPIRÉS :
  • 041400Z AUTO 13010KT 080V160 CAVOK 18/02 Q1019
  • 041330Z AUTO 10009KT 060V140 CAVOK 17/01 Q1019
  • 041300Z AUTO 11010KT 070V150 CAVOK 17/02 Q1019
  • 041230Z AUTO 09011KT CAVOK 16/02 Q1020
  • 041200Z AUTO 11011KT 080V140 CAVOK 16/01 Q1020

TAF TAF LFOC
Valide du 03 à 15h jusqu'au 04 à 15h UTC


031400Z 0315/0415 32008KT CAVOK
PROB30
TEMPO 0402/0405 3000 BR



MET'MAP, la Météo Aéronautique d'un coup d'oeil ! - Copyright ORBIFLY Décembre 2007 - Disclaimer

ORBIFLY MET'MAP TEAM :

Programmation & Développement : Alexandra Zaïnal
Sur une idée originale de : Baudouin d'Aumeries
Assistance à la programmation : Marc-Olivier Méhu
Soutien technique & logistique : Manuel Goepfert

Contact : metmap@orbifly.com




SOURCES & CREDITS :

   NOAA